Time;durP1;ratioP1;P1;durP2;ratioP2;P2;SDS_P1;SDS_P2;PMS_P1;PMS_P2;Temp;Humidity;BMP_temperature;BMP_pressure;BME280_temperature;BME280_humidity;BME280_pressure;Samples;Min_cycle;Max_cycle;Signal;HPM_P1;HPM_P2
2024/02/16 00:01:37;;;;;;;9.88;5.03;;;;;;;-7.40;63.66;101718.59;4770397;29;20132;-68
2024/02/16 00:04:03;;;;;;;13.13;5.10;;;;;;;-7.48;62.33;101716.97;4771918;29;20047;-67
2024/02/16 00:06:29;;;;;;;11.27;4.55;;;;;;;-7.41;63.91;101719.34;4780480;29;20051;-65
2024/02/16 00:08:55;;;;;;;11.90;4.97;;;;;;;-7.23;63.64;101727.75;4776082;29;20137;-67
2024/02/16 00:11:23;;;;;;;11.45;5.30;;;;;;;-7.33;63.67;101731.06;4778740;29;20138;-66
2024/02/16 00:13:49;;;;;;;10.13;5.00;;;;;;;-7.38;63.30;101689.25;4778795;29;20511;-69
2024/02/16 00:16:15;;;;;;;14.57;5.72;;;;;;;-7.44;63.10;101721.59;4776645;29;20136;-66
2024/02/16 00:18:41;;;;;;;13.13;5.70;;;;;;;-7.61;63.93;101708.22;4775708;29;20057;-67
2024/02/16 00:21:07;;;;;;;11.20;4.70;;;;;;;-7.71;63.50;101697.97;4780718;29;20301;-67
2024/02/16 00:23:33;;;;;;;14.82;5.43;;;;;;;-7.56;63.14;101718.78;4785586;29;20415;-67
2024/02/16 00:26:00;;;;;;;14.07;5.72;;;;;;;-7.51;64.48;101694.81;4772112;29;20400;-68
2024/02/16 00:28:26;;;;;;;10.23;5.28;;;;;;;-7.54;62.63;101714.78;4766768;29;20140;-68
2024/02/16 00:30:52;;;;;;;13.73;4.85;;;;;;;-7.59;64.13;101708.38;4781611;29;20051;-68
2024/02/16 00:33:18;;;;;;;10.70;4.68;;;;;;;-7.51;63.84;101704.03;4778823;29;20058;-66
2024/02/16 00:35:47;;;;;;;15.95;5.60;;;;;;;-7.44;63.56;101702.22;4791328;29;20499;-65
2024/02/16 00:38:13;;;;;;;13.88;5.20;;;;;;;-7.37;63.92;101680.91;4779020;29;20146;-67
2024/02/16 00:40:43;;;;;;;13.25;5.72;;;;;;;-7.71;62.64;101633.13;4776351;29;20185;-68
2024/02/16 00:43:10;;;;;;;11.82;4.97;;;;;;;-7.29;64.17;101690.13;4781037;29;20055;-67
2024/02/16 00:45:37;;;;;;;15.88;5.30;;;;;;;-7.11;63.86;101692.56;4777909;29;20051;-68
2024/02/16 00:48:03;;;;;;;11.20;4.97;;;;;;;-7.36;62.92;101690.28;4775349;29;20069;-67
2024/02/16 00:50:29;;;;;;;12.88;5.63;;;;;;;-7.72;62.92;101666.75;4780558;29;20067;-68
2024/02/16 00:52:55;;;;;;;12.05;5.18;;;;;;;-7.61;63.57;101682.03;4781293;29;20042;-68
2024/02/16 00:55:24;;;;;;;14.80;5.53;;;;;;;-7.72;63.04;101683.56;4789024;29;20046;-68
2024/02/16 00:57:50;;;;;;;9.88;5.13;;;;;;;-7.89;63.24;101674.38;4766140;29;20054;-67
2024/02/16 01:00:16;;;;;;;11.07;5.28;;;;;;;-8.05;63.18;101669.47;4763805;29;20188;-68
2024/02/16 01:02:42;;;;;;;14.55;5.80;;;;;;;-8.10;63.23;101678.28;4791797;29;20153;-68
2024/02/16 01:05:10;;;;;;;12.68;5.68;;;;;;;-8.21;64.19;101645.28;4784692;29;20051;-67
2024/02/16 01:07:36;;;;;;;13.10;5.20;;;;;;;-7.90;64.36;101657.41;4775545;29;20495;-66
2024/02/16 01:10:05;;;;;;;12.77;5.65;;;;;;;-7.74;63.85;101675.84;4780302;29;20104;-66
2024/02/16 01:12:32;;;;;;;12.23;4.93;;;;;;;-7.91;64.04;101656.53;4763137;29;20141;-67
2024/02/16 01:14:58;;;;;;;11.88;4.82;;;;;;;-7.76;64.63;101656.19;4770184;29;20071;-68
2024/02/16 01:17:24;;;;;;;10.63;5.15;;;;;;;-7.76;63.43;101654.56;4775542;29;20085;-69
2024/02/16 01:19:50;;;;;;;12.43;5.32;;;;;;;-7.62;64.16;101666.00;4778655;29;20630;-68
2024/02/16 01:22:16;;;;;;;12.82;4.75;;;;;;;-7.79;62.99;101671.06;4778405;29;20145;-67
2024/02/16 01:24:42;;;;;;;13.57;5.10;;;;;;;-7.85;64.60;101655.34;4775579;29;20149;-67
2024/02/16 01:27:07;;;;;;;9.10;4.57;;;;;;;-7.58;64.56;101668.03;4779522;29;20047;-67
2024/02/16 01:29:33;;;;;;;12.20;5.43;;;;;;;-7.39;64.54;101669.75;4779976;29;20137;-66
2024/02/16 01:32:00;;;;;;;10.18;4.25;;;;;;;-7.21;64.66;101662.13;4778533;29;20119;-67
2024/02/16 01:34:26;;;;;;;11.05;5.32;;;;;;;-7.11;64.57;101663.09;4782604;29;20047;-66
2024/02/16 01:36:52;;;;;;;13.07;4.85;;;;;;;-6.93;64.23;101672.22;4781811;29;20051;-67
2024/02/16 01:39:18;;;;;;;10.95;4.93;;;;;;;-6.90;64.11;101692.75;4794519;29;20404;-68
2024/02/16 01:41:47;;;;;;;11.05;4.95;;;;;;;-7.26;62.91;101677.75;4780819;29;20053;-69
2024/02/16 01:44:15;;;;;;;12.50;5.25;;;;;;;-7.45;63.25;101682.72;4782946;29;20499;-68
2024/02/16 01:46:41;;;;;;;9.90;5.05;;;;;;;-7.44;63.89;101683.63;4764246;29;20077;-68
2024/02/16 01:49:07;;;;;;;12.95;5.28;;;;;;;-7.52;62.79;101682.94;4793472;29;20875;-69
2024/02/16 01:51:35;;;;;;;12.75;5.00;;;;;;;-7.61;63.69;101684.56;4779336;29;20054;-68
2024/02/16 01:54:01;;;;;;;12.02;5.13;;;;;;;-7.56;64.76;101656.44;4782290;29;20109;-67
2024/02/16 01:56:29;;;;;;;11.75;5.03;;;;;;;-7.42;64.13;101669.50;4781991;29;20523;-67
2024/02/16 01:58:55;;;;;;;12.88;5.22;;;;;;;-7.49;64.36;101675.59;4771247;29;20054;-66
2024/02/16 02:01:22;;;;;;;11.50;5.35;;;;;;;-7.46;63.88;101680.94;4780387;29;20063;-66
2024/02/16 02:03:48;;;;;;;13.75;5.70;;;;;;;-7.30;64.69;101680.75;4780847;29;20057;-66
2024/02/16 02:06:15;;;;;;;14.27;4.63;;;;;;;-7.39;63.93;101682.41;4765689;29;20074;-64
2024/02/16 02:08:41;;;;;;;11.93;5.22;;;;;;;-7.58;63.48;101677.28;4782834;29;20089;-66
2024/02/16 02:11:07;;;;;;;11.82;4.50;;;;;;;-7.59;63.30;101685.63;4797047;29;20095;-66
2024/02/16 02:13:33;;;;;;;12.55;4.88;;;;;;;-7.62;64.01;101666.00;4792971;29;20055;-67
2024/02/16 02:16:00;;;;;;;13.50;5.30;;;;;;;-7.47;64.38;101656.41;4792153;29;20046;-65
2024/02/16 02:18:26;;;;;;;11.68;5.70;;;;;;;-7.22;64.49;101657.81;4752026;29;20237;-65
2024/02/16 02:20:53;;;;;;;12.38;5.80;;;;;;;-6.92;64.06;101674.00;4767825;29;20058;-67
2024/02/16 02:23:19;;;;;;;14.65;5.78;;;;;;;-6.83;64.73;101665.59;4793189;29;20055;-66
2024/02/16 02:25:45;;;;;;;11.07;5.20;;;;;;;-7.08;62.12;101659.97;4792173;29;20461;-66
2024/02/16 02:28:11;;;;;;;11.82;5.25;;;;;;;-7.29;62.92;101662.28;4793354;29;20051;-66
2024/02/16 02:30:37;;;;;;;13.32;5.90;;;;;;;-7.46;62.76;101655.66;4768204;29;20102;-64
2024/02/16 02:33:04;;;;;;;13.38;5.65;;;;;;;-7.52;63.73;101651.66;4780507;29;20051;-66
2024/02/16 02:35:30;;;;;;;13.38;5.72;;;;;;;-7.58;62.95;101657.94;4779309;29;20065;-66
2024/02/16 02:37:59;;;;;;;11.88;5.43;;;;;;;-7.80;62.94;101649.97;4793436;29;20119;-67
2024/02/16 02:40:25;;;;;;;12.65;5.70;;;;;;;-7.66;63.67;101656.34;4783093;29;20070;-65
2024/02/16 02:42:51;;;;;;;10.93;4.93;;;;;;;-7.44;63.79;101673.53;4792011;29;20159;-66
2024/02/16 02:45:17;;;;;;;12.93;5.50;;;;;;;-7.49;64.76;101651.97;4791214;29;20068;-67
2024/02/16 02:47:43;;;;;;;11.40;5.18;;;;;;;-7.37;63.72;101662.31;4794223;29;20812;-66
2024/02/16 02:50:09;;;;;;;11.27;5.13;;;;;;;-7.41;63.55;101653.56;4781060;29;20055;-65
2024/02/16 02:52:35;;;;;;;10.88;5.22;;;;;;;-7.29;63.29;101677.47;4793586;29;20053;-66
2024/02/16 02:55:01;;;;;;;13.88;5.80;;;;;;;-7.58;63.33;101660.44;4791931;29;20035;-65
2024/02/16 02:57:27;;;;;;;10.73;5.25;;;;;;;-7.52;63.84;101679.50;4765327;29;20057;-65
2024/02/16 03:00:10;;;;;;;14.98;5.85;;;;;;;-7.47;63.75;101668.16;4780447;29;20449;-66
2024/02/16 03:02:38;;;;;;;13.40;5.15;;;;;;;-7.35;63.49;101681.06;4791241;29;20051;-66
2024/02/16 03:05:08;;;;;;;11.68;5.47;;;;;;;-7.61;63.03;101656.75;4757805;29;20051;-67
2024/02/16 03:07:34;;;;;;;14.10;5.88;;;;;;;-7.36;64.57;101685.22;4764320;29;20082;-66
2024/02/16 03:10:02;;;;;;;13.85;5.20;;;;;;;-7.51;63.27;101654.34;4781055;29;20058;-66
2024/02/16 03:12:28;;;;;;;15.90;4.80;;;;;;;-7.53;63.63;101660.91;4751923;29;20047;-67
2024/02/16 03:14:54;;;;;;;11.73;5.80;;;;;;;-7.53;63.75;101654.94;4762351;29;20112;-66
2024/02/16 03:17:20;;;;;;;9.32;5.15;;;;;;;-7.18;64.20;101691.13;4792137;29;20059;-66
2024/02/16 03:19:46;;;;;;;11.23;4.97;;;;;;;-7.42;63.96;101649.25;4781397;29;20055;-65
2024/02/16 03:22:12;;;;;;;8.45;4.82;;;;;;;-7.32;63.58;101676.31;4786963;29;20078;-67
2024/02/16 03:24:38;;;;;;;11.52;4.93;;;;;;;-7.60;62.84;101668.66;4780728;29;20499;-66
2024/02/16 03:27:05;;;;;;;11.98;5.22;;;;;;;-7.59;63.43;101671.31;4766010;29;20054;-68
2024/02/16 03:29:31;;;;;;;12.52;5.47;;;;;;;-7.77;62.86;101660.38;4781138;29;20058;-67
2024/02/16 03:31:57;;;;;;;13.18;5.70;;;;;;;-7.78;63.48;101677.91;4793398;29;20061;-67
2024/02/16 03:34:23;;;;;;;12.35;5.40;;;;;;;-8.03;62.96;101648.69;4790452;29;20050;-67
2024/02/16 03:36:50;;;;;;;13.80;5.95;;;;;;;-7.92;63.26;101690.16;4758059;29;20105;-68
2024/02/16 03:39:19;;;;;;;12.65;5.78;;;;;;;-7.99;63.92;101672.59;4772305;29;20157;-67
2024/02/16 03:41:49;;;;;;;11.93;5.82;;;;;;;-7.68;64.87;101690.69;4752624;29;20508;-65
2024/02/16 03:44:18;;;;;;;14.38;5.82;;;;;;;-7.68;64.04;101673.00;4765932;29;20407;-65
2024/02/16 03:46:44;;;;;;;13.05;5.68;;;;;;;-7.35;65.33;101668.44;4791457;29;20051;-68
2024/02/16 03:49:10;;;;;;;14.68;6.53;;;;;;;-7.15;63.73;101687.97;4775894;29;20070;-68
2024/02/16 03:51:37;;;;;;;12.68;5.82;;;;;;;-7.47;63.22;101684.22;4789752;29;20047;-66
2024/02/16 03:54:04;;;;;;;15.75;7.30;;;;;;;-7.64;64.02;101672.53;4790641;29;20042;-69
2024/02/16 03:56:30;;;;;;;17.00;7.65;;;;;;;-8.04;62.83;101613.13;4779048;29;20050;-67
2024/02/16 03:58:56;;;;;;;17.92;7.22;;;;;;;-7.53;64.22;101690.34;4781305;29;20042;-68
2024/02/16 04:01:22;;;;;;;16.20;7.28;;;;;;;-7.35;64.27;101707.25;4792091;29;20058;-67
2024/02/16 04:03:51;;;;;;;19.38;8.40;;;;;;;-7.18;64.36;101682.66;4793074;29;20053;-67
2024/02/16 04:06:17;;;;;;;16.38;7.93;;;;;;;-6.84;64.02;101706.00;4793287;29;20047;-67
2024/02/16 04:08:44;;;;;;;18.90;7.40;;;;;;;-6.77;63.55;101702.38;4793511;29;20464;-68
2024/02/16 04:11:13;;;;;;;16.80;6.32;;;;;;;-6.86;63.43;101695.75;4781020;29;20061;-67
2024/02/16 04:13:39;;;;;;;14.02;7.22;;;;;;;-7.13;63.86;101668.75;4780648;29;20070;-67
2024/02/16 04:16:05;;;;;;;11.18;5.90;;;;;;;-6.92;63.11;101707.81;4793197;29;20131;-67
2024/02/16 04:18:31;;;;;;;16.50;7.15;;;;;;;-7.38;62.51;101686.72;4766266;29;20050;-67
2024/02/16 04:20:57;;;;;;;16.75;7.10;;;;;;;-7.46;63.37;101662.38;4766688;29;20076;-67
2024/02/16 04:23:23;;;;;;;17.00;6.68;;;;;;;-7.17;63.58;101682.78;4776909;29;20147;-68
2024/02/16 04:25:49;;;;;;;14.18;6.78;;;;;;;-7.15;63.57;101688.88;4765686;29;20050;-67
2024/02/16 04:28:15;;;;;;;15.32;6.90;;;;;;;-7.23;62.82;101673.72;4775947;29;20538;-67
2024/02/16 04:30:42;;;;;;;15.45;6.93;;;;;;;-7.15;63.85;101688.88;4758088;29;20046;-67
2024/02/16 04:33:11;;;;;;;16.00;7.53;;;;;;;-6.96;64.42;101675.38;4779179;29;20632;-67
2024/02/16 04:35:38;;;;;;;21.65;7.45;;;;;;;-6.86;63.30;101680.56;4764872;29;20464;-66
2024/02/16 04:38:03;;;;;;;16.67;6.55;;;;;;;-7.39;63.24;101633.47;4775577;29;20438;-70
2024/02/16 04:40:36;;;;;;;15.60;6.00;;;;;;;-7.23;63.48;101668.66;4780517;29;20061;-66
2024/02/16 04:43:02;;;;;;;13.27;5.95;;;;;;;-7.30;63.26;101663.03;4770995;29;20047;-66
2024/02/16 04:45:30;;;;;;;13.00;5.93;;;;;;;-7.17;63.75;101684.44;4791330;29;20054;-65
2024/02/16 04:47:56;;;;;;;17.67;6.07;;;;;;;-7.01;63.85;101686.72;4791310;29;20063;-66
2024/02/16 04:50:22;;;;;;;12.73;5.63;;;;;;;-7.19;62.59;101668.22;4776975;29;20112;-68
2024/02/16 04:52:48;;;;;;;13.02;6.00;;;;;;;-7.25;63.86;101673.56;4775492;29;20085;-67
2024/02/16 04:55:13;;;;;;;14.45;6.07;;;;;;;-7.09;63.91;101655.66;4791647;29;20054;-66
2024/02/16 04:57:39;;;;;;;16.13;6.03;;;;;;;-6.76;63.97;101656.94;4776689;29;20396;-67
2024/02/16 05:00:06;;;;;;;15.05;6.60;;;;;;;-6.48;64.36;101678.81;4777433;29;20412;-65
2024/02/16 05:02:32;;;;;;;15.05;6.35;;;;;;;-6.67;63.51;101652.69;4780055;29;20061;-67
2024/02/16 05:04:58;;;;;;;13.55;6.13;;;;;;;-6.43;64.29;101690.25;4780806;29;20048;-65
2024/02/16 05:07:23;;;;;;;13.57;5.90;;;;;;;-6.63;62.94;101675.78;4796865;29;20054;-66
2024/02/16 05:09:49;;;;;;;14.02;6.40;;;;;;;-6.57;62.68;101691.53;4780069;29;20055;-63
2024/02/16 05:12:18;;;;;;;17.52;5.80;;;;;;;-7.00;62.22;101681.81;4778486;29;20472;-63
2024/02/16 05:14:48;;;;;;;15.07;6.35;;;;;;;-7.38;62.19;101663.94;4793453;29;20486;-63
2024/02/16 05:17:14;;;;;;;15.20;6.78;;;;;;;-7.25;63.52;101683.69;4783027;29;20054;-66
2024/02/16 05:19:40;;;;;;;20.17;8.40;;;;;;;-6.91;64.41;101688.44;4796274;29;20426;-63
2024/02/16 05:22:06;;;;;;;14.60;6.85;;;;;;;-6.66;64.14;101684.88;4795634;29;20399;-64
2024/02/16 05:24:33;;;;;;;15.93;6.38;;;;;;;-6.52;63.63;101680.19;4773305;29;20051;-65
2024/02/16 05:26:59;;;;;;;13.63;6.53;;;;;;;-6.48;63.43;101668.66;4773952;29;20047;-66
2024/02/16 05:29:26;;;;;;;11.82;5.47;;;;;;;-6.59;62.46;101671.13;4796408;29;20503;-66
2024/02/16 05:31:53;;;;;;;14.63;6.07;;;;;;;-6.49;63.44;101679.56;4793252;29;20070;-66
2024/02/16 05:34:19;;;;;;;16.88;6.38;;;;;;;-6.63;62.65;101658.94;4766578;29;20089;-66
2024/02/16 05:36:45;;;;;;;16.58;6.15;;;;;;;-6.67;63.54;101655.22;4768989;29;20062;-69
2024/02/16 05:39:25;;;;;;;14.38;6.35;;;;;;;-6.46;63.94;101645.25;4795311;29;20479;-65
2024/02/16 05:41:51;;;;;;;14.05;6.07;;;;;;;-6.52;62.49;101647.25;4780454;29;20141;-68
2024/02/16 05:44:18;;;;;;;13.75;6.57;;;;;;;-6.91;61.79;101653.00;4783171;29;20047;-67
2024/02/16 05:46:44;;;;;;;15.20;5.80;;;;;;;-6.90;63.55;101667.44;4792819;29;20550;-66
2024/02/16 05:49:11;;;;;;;13.85;6.32;;;;;;;-6.85;63.30;101656.09;4782513;29;20062;-66
2024/02/16 05:51:40;;;;;;;13.80;5.68;;;;;;;-6.97;62.15;101671.06;4754108;29;20100;-67
2024/02/16 05:54:08;;;;;;;13.52;6.85;;;;;;;-7.15;62.33;101682.91;4765120;29;20165;-72
2024/02/16 05:56:36;;;;;;;14.88;5.68;;;;;;;-6.89;63.71;101684.41;4781645;29;20055;-68
2024/02/16 05:59:03;;;;;;;12.75;6.15;;;;;;;-6.87;62.64;101688.00;4780089;29;20104;-66
2024/02/16 06:01:32;;;;;;;14.57;6.30;;;;;;;-6.80;63.79;101675.16;4779596;29;20061;-64
2024/02/16 06:03:58;;;;;;;16.17;7.00;;;;;;;-6.48;63.29;101692.34;4782493;29;20388;-66
2024/02/16 06:06:24;;;;;;;11.80;6.43;;;;;;;-6.38;63.96;101682.31;4778721;29;20053;-67
2024/02/16 06:08:50;;;;;;;15.45;6.47;;;;;;;-6.14;64.13;101690.31;4775178;29;20621;-66
2024/02/16 06:11:16;;;;;;;11.70;5.57;;;;;;;-6.07;63.65;101672.31;4777843;29;20146;-68
2024/02/16 06:13:41;;;;;;;13.70;6.38;;;;;;;-5.96;63.30;101677.44;4767165;29;20058;-67
2024/02/16 06:16:10;;;;;;;16.15;6.60;;;;;;;-6.09;63.09;101666.25;4782413;29;20043;-66
2024/02/16 06:18:36;;;;;;;15.05;5.97;;;;;;;-5.84;63.74;101691.19;4780343;29;20050;-66
2024/02/16 06:21:02;;;;;;;14.40;6.03;;;;;;;-5.83;62.65;101694.63;4778221;29;20039;-66
2024/02/16 06:23:29;;;;;;;13.88;6.18;;;;;;;-5.94;62.90;101681.88;4783384;29;20162;-68
2024/02/16 06:25:55;;;;;;;14.77;5.93;;;;;;;-5.83;63.79;101680.28;4766235;29;20169;-68
2024/02/16 06:28:21;;;;;;;11.55;6.20;;;;;;;-5.56;63.66;101701.19;4783987;29;20062;-67
2024/02/16 06:30:48;;;;;;;15.82;6.25;;;;;;;-5.42;63.58;101689.69;4765706;29;20062;-67
2024/02/16 06:33:14;;;;;;;11.30;5.65;;;;;;;-5.41;63.73;101693.16;4764956;29;20051;-71
2024/02/16 06:35:39;;;;;;;19.55;6.55;;;;;;;-5.42;62.94;101683.75;4779028;29;20097;-73
2024/02/16 06:38:06;;;;;;;12.05;5.68;;;;;;;-5.43;62.60;101679.44;4778961;29;20499;-74
2024/02/16 06:40:32;;;;;;;15.50;6.13;;;;;;;-5.35;62.41;101697.09;4762739;29;20051;-68
2024/02/16 06:42:58;;;;;;;15.82;6.78;;;;;;;-5.35;62.60;101706.34;4794303;29;20047;-67
2024/02/16 06:45:24;;;;;;;14.80;6.15;;;;;;;-5.37;62.86;101685.91;4782578;29;20192;-69
2024/02/16 06:47:50;;;;;;;13.85;6.65;;;;;;;-5.28;61.80;101685.81;4781871;29;20058;-70
2024/02/16 06:50:16;;;;;;;13.05;6.10;;;;;;;-5.07;63.39;101694.34;4783008;29;20104;-69
2024/02/16 06:52:42;;;;;;;17.50;7.15;;;;;;;-4.87;63.08;101702.78;4780085;29;20055;-70
2024/02/16 06:55:08;;;;;;;13.25;6.47;;;;;;;-5.01;61.85;101694.00;4763404;29;20047;-69
2024/02/16 06:57:34;;;;;;;12.20;6.53;;;;;;;-5.09;62.57;101694.97;4778513;29;20161;-70
2024/02/16 07:00:00;;;;;;;11.35;5.97;;;;;;;-5.52;61.10;101647.44;4769712;29;20082;-69
2024/02/16 07:02:28;;;;;;;15.40;6.15;;;;;;;-5.42;62.30;101681.22;4764651;29;20574;-69
2024/02/16 07:04:54;;;;;;;13.10;6.13;;;;;;;-5.35;62.15;101704.72;4781829;29;20116;-70
2024/02/16 07:07:21;;;;;;;13.30;6.53;;;;;;;-5.83;61.82;101674.34;4783122;29;20050;-70
2024/02/16 07:09:47;;;;;;;15.65;6.97;;;;;;;-5.66;61.56;101713.84;4778510;29;20071;-67
2024/02/16 07:12:13;;;;;;;20.33;6.93;;;;;;;-5.74;62.30;101690.38;4793192;29;20051;-69
2024/02/16 07:14:39;;;;;;;14.93;6.65;;;;;;;-5.51;61.61;101699.94;4767047;29;20086;-69
2024/02/16 07:17:09;;;;;;;17.95;7.55;;;;;;;-5.23;62.73;101707.41;4779882;29;20104;-69
2024/02/16 07:19:36;;;;;;;15.40;7.22;;;;;;;-5.10;62.75;101698.28;4780880;29;20503;-69
2024/02/16 07:22:02;;;;;;;16.75;7.00;;;;;;;-4.96;62.85;101707.06;4779571;29;20051;-68
2024/02/16 07:24:28;;;;;;;18.25;7.43;;;;;;;-5.42;60.94;101668.53;4792574;29;20051;-70
2024/02/16 07:26:54;;;;;;;12.85;6.65;;;;;;;-5.77;61.99;101640.25;4781213;29;20054;-70
2024/02/16 07:29:20;;;;;;;17.77;6.80;;;;;;;-5.34;62.21;101683.66;4777225;29;20051;-69
2024/02/16 07:31:46;;;;;;;16.70;7.25;;;;;;;-5.42;61.94;101676.13;4792937;29;20047;-69
2024/02/16 07:34:12;;;;;;;14.20;6.82;;;;;;;-5.61;62.59;101637.38;4748196;29;20133;-69
2024/02/16 07:36:38;;;;;;;16.15;7.60;;;;;;;-5.31;62.60;101655.09;4778595;29;20165;-70
2024/02/16 07:39:04;;;;;;;13.57;6.63;;;;;;;-5.17;61.55;101695.22;4778166;29;21665;-69
2024/02/16 07:41:30;;;;;;;17.30;7.80;;;;;;;-4.90;63.03;101702.50;4766392;29;20074;-70
2024/02/16 07:43:56;;;;;;;15.18;7.55;;;;;;;-4.95;62.75;101675.84;4792436;29;20039;-72
2024/02/16 07:46:23;;;;;;;13.77;6.68;;;;;;;-4.97;61.20;101711.28;4764164;29;20046;-69
2024/02/16 07:48:50;;;;;;;19.15;8.00;;;;;;;-5.37;60.88;101687.53;4777941;29;20245;-69
2024/02/16 07:51:16;;;;;;;14.80;6.90;;;;;;;-5.40;61.95;101683.13;4796549;29;20047;-67
2024/02/16 07:53:44;;;;;;;15.43;6.25;;;;;;;-5.56;62.29;101627.63;4780554;29;20449;-67
2024/02/16 07:56:10;;;;;;;14.80;7.32;;;;;;;-5.20;61.82;101681.38;4761871;29;20101;-68
2024/02/16 07:58:36;;;;;;;19.15;8.35;;;;;;;-5.09;62.57;101672.13;4792188;29;20043;-68
2024/02/16 08:01:02;;;;;;;13.48;6.88;;;;;;;-4.79;62.02;101690.72;4794136;29;20050;-67
2024/02/16 08:03:28;;;;;;;16.17;7.35;;;;;;;-4.67;62.27;101689.19;4777031;29;21497;-68
2024/02/16 08:05:55;;;;;;;18.05;6.85;;;;;;;-4.60;62.36;101686.38;4794177;29;20065;-67
2024/02/16 08:08:25;;;;;;;15.35;7.30;;;;;;;-4.63;61.81;101668.34;4781190;29;20047;-68
2024/02/16 08:10:51;;;;;;;18.63;7.18;;;;;;;-4.70;61.98;101650.81;4782303;29;20141;-67
2024/02/16 08:13:18;;;;;;;15.63;7.65;;;;;;;-4.84;61.38;101642.03;4787165;29;20141;-67
2024/02/16 08:15:43;;;;;;;19.00;8.00;;;;;;;-4.94;61.33;101660.72;4778396;29;20065;-68
2024/02/16 08:18:12;;;;;;;17.55;6.88;;;;;;;-4.90;62.13;101697.44;4791662;29;20548;-67
2024/02/16 08:20:39;;;;;;;16.38;7.25;;;;;;;-5.08;61.96;101625.66;4783974;29;20050;-67
2024/02/16 08:23:04;;;;;;;18.92;8.45;;;;;;;-4.54;61.99;101684.38;4781298;29;20050;-68
2024/02/16 08:25:33;;;;;;;15.35;7.03;;;;;;;-4.53;61.38;101705.56;4777804;29;20077;-66
2024/02/16 08:27:58;;;;;;;15.18;7.72;;;;;;;-4.57;61.43;101714.59;4780610;29;20042;-65
2024/02/16 08:30:25;;;;;;;15.48;7.55;;;;;;;-4.63;61.98;101703.06;4791733;29;20066;-67
2024/02/16 08:32:51;;;;;;;15.57;7.22;;;;;;;-4.45;61.42;101713.81;4761765;29;20550;-66
2024/02/16 08:35:18;;;;;;;17.70;7.78;;;;;;;-4.40;61.61;101723.59;4790677;29;20042;-66
2024/02/16 08:37:44;;;;;;;16.25;8.32;;;;;;;-4.31;62.19;101718.41;4764657;29;20247;-67
2024/02/16 08:40:14;;;;;;;16.48;7.65;;;;;;;-4.42;61.84;101711.53;4794549;29;20046;-67
2024/02/16 08:42:42;;;;;;;15.90;7.20;;;;;;;-4.30;62.06;101720.16;4787123;29;20055;-67
2024/02/16 08:45:09;;;;;;;14.43;7.05;;;;;;;-4.25;61.28;101721.44;4782547;29;20354;-66
2024/02/16 08:47:34;;;;;;;19.80;8.48;;;;;;;-4.54;61.47;101686.00;4783816;29;20047;-65
2024/02/16 08:50:00;;;;;;;16.90;7.47;;;;;;;-4.27;60.84;101730.59;4799729;29;20042;-64
2024/02/16 08:52:26;;;;;;;18.48;8.18;;;;;;;-4.16;61.13;101744.19;4794738;29;20202;-66
2024/02/16 08:54:52;;;;;;;18.85;8.52;;;;;;;-4.13;61.37;101724.09;4782835;29;20656;-67
2024/02/16 08:57:18;;;;;;;16.73;8.25;;;;;;;-3.85;61.05;101745.78;4790966;29;20054;-68
2024/02/16 08:59:46;;;;;;;17.25;7.65;;;;;;;-4.34;59.96;101737.59;4796718;29;20627;-68
2024/02/16 09:02:12;;;;;;;15.32;8.30;;;;;;;-4.41;61.79;101696.41;4795616;29;20405;-67
2024/02/16 09:04:38;;;;;;;17.48;8.43;;;;;;;-3.94;61.33;101730.66;4793790;29;20051;-68
2024/02/16 09:07:04;;;;;;;16.35;7.78;;;;;;;-3.77;61.30;101732.03;4769063;29;20043;-69
2024/02/16 09:09:33;;;;;;;19.17;8.90;;;;;;;-3.68;61.53;101717.50;4795653;29;20066;-67
2024/02/16 09:11:59;;;;;;;14.63;6.70;;;;;;;-3.76;61.30;101720.19;4769101;29;20046;-69
2024/02/16 09:14:25;;;;;;;17.85;8.43;;;;;;;-3.60;61.89;101728.28;4779427;29;20047;-67
2024/02/16 09:16:54;;;;;;;21.88;8.38;;;;;;;-3.46;61.41;101716.66;4795605;29;20043;-68
2024/02/16 09:19:19;;;;;;;17.08;7.72;;;;;;;-3.54;61.30;101710.06;4779749;29;20675;-68
2024/02/16 09:21:46;;;;;;;18.90;8.77;;;;;;;-3.53;61.59;101694.00;4783763;29;20047;-68
2024/02/16 09:24:17;;;;;;;15.18;7.55;;;;;;;-3.67;60.42;101686.19;4794894;29;20146;-70
2024/02/16 09:26:46;;;;;;;14.70;7.00;;;;;;;-3.78;61.27;101714.97;4779370;29;20066;-67
2024/02/16 09:29:14;;;;;;;18.55;8.20;;;;;;;-3.69;61.33;101695.34;4779420;29;20295;-65
2024/02/16 09:31:44;;;;;;;18.20;8.52;;;;;;;-3.64;60.39;101708.44;4763615;29;20135;-66
2024/02/16 09:34:10;;;;;;;16.38;8.15;;;;;;;-3.85;60.66;101654.19;4792976;29;20078;-66
2024/02/16 09:36:37;;;;;;;21.05;8.80;;;;;;;-3.76;60.53;101704.94;4782623;29;20085;-67
2024/02/16 09:39:03;;;;;;;18.02;8.35;;;;;;;-3.54;61.14;101687.16;4783428;29;20070;-68
2024/02/16 09:41:28;;;;;;;19.33;8.23;;;;;;;-3.60;59.20;101704.47;4781328;29;20142;-68
2024/02/16 09:43:55;;;;;;;17.70;8.32;;;;;;;-3.88;60.55;101717.56;4779778;29;20074;-68
2024/02/16 09:46:23;;;;;;;18.05;8.65;;;;;;;-3.92;61.57;101673.16;4778711;29;20511;-68
2024/02/16 09:48:52;;;;;;;16.80;7.78;;;;;;;-3.58;60.61;101692.75;4768643;29;20054;-67
2024/02/16 09:51:18;;;;;;;22.23;8.75;;;;;;;-3.38;61.05;101689.25;4795540;29;20577;-68
2024/02/16 09:53:55;;;;;;;20.08;8.05;;;;;;;-3.26;61.20;101684.22;4764504;29;20046;-66
2024/02/16 09:56:21;;;;;;;17.45;8.25;;;;;;;-3.34;60.73;101673.44;4751959;29;20046;-68
2024/02/16 09:58:47;;;;;;;18.80;8.77;;;;;;;-3.24;61.23;101698.81;4779278;29;20051;-68
2024/02/16 10:01:21;;;;;;;17.63;8.27;;;;;;;-3.77;59.77;101688.75;4766915;29;20047;-68
2024/02/16 10:03:49;;;;;;;24.15;8.05;;;;;;;-4.21;59.99;101666.66;4783126;29;20051;-69
2024/02/16 10:06:17;;;;;;;19.00;8.23;;;;;;;-4.13;60.48;101677.44;4769281;29;20047;-69
2024/02/16 10:08:54;;;;;;;18.13;8.30;;;;;;;-4.25;60.39;101672.25;4783366;29;20100;-69
2024/02/16 10:11:24;;;;;;;17.75;8.00;;;;;;;-4.53;59.22;101670.00;4794575;29;20054;-69
2024/02/16 10:14:05;;;;;;;19.40;8.07;;;;;;;-4.73;60.56;101622.59;4796354;29;20087;-65
2024/02/16 10:16:31;;;;;;;19.10;8.60;;;;;;;-4.58;59.63;101654.38;4794703;29;20047;-67
2024/02/16 10:19:11;;;;;;;20.30;8.88;;;;;;;-4.47;60.63;101657.78;4782617;29;20055;-67
2024/02/16 10:21:37;;;;;;;14.13;7.47;;;;;;;-4.14;61.33;101624.78;4783810;29;20047;-69
2024/02/16 10:24:11;;;;;;;19.38;8.05;;;;;;;-3.78;60.90;101626.81;4765633;29;20051;-68
2024/02/16 10:26:38;;;;;;;19.20;8.88;;;;;;;-3.44;60.00;101653.09;4782485;29;20415;-67
2024/02/16 10:29:06;;;;;;;17.60;7.20;;;;;;;-3.80;59.14;101651.25;4765334;29;20047;-67
2024/02/16 10:31:33;;;;;;;16.05;8.48;;;;;;;-4.05;59.91;101624.63;4782752;29;20046;-68
2024/02/16 10:34:01;;;;;;;20.67;8.48;;;;;;;-3.76;60.19;101652.38;4790483;29;20071;-68
2024/02/16 10:36:28;;;;;;;18.25;7.80;;;;;;;-3.99;58.99;101598.03;4794958;29;20442;-68
2024/02/16 10:38:56;;;;;;;16.65;8.80;;;;;;;-3.74;58.84;101647.38;4751836;29;20781;-68
2024/02/16 10:41:28;;;;;;;18.63;9.05;;;;;;;-3.67;60.30;101629.31;4778273;29;20043;-68
2024/02/16 10:43:56;;;;;;;15.48;7.50;;;;;;;-3.42;60.33;101655.00;4782413;29;20043;-72
2024/02/16 10:46:25;;;;;;;22.27;9.02;;;;;;;-3.64;60.16;101604.09;4798617;29;20457;-69
2024/02/16 10:48:51;;;;;;;20.00;8.32;;;;;;;-3.36;59.31;101640.19;4779339;29;20112;-68
2024/02/16 10:51:23;;;;;;;19.02;8.43;;;;;;;-3.51;59.63;101644.97;4789590;29;20046;-67
2024/02/16 10:53:51;;;;;;;;;;;;;;;-3.25;60.49;101660.53;4780895;29;20046;-73
2024/02/16 10:56:33;;;;;;;16.90;7.07;;;;;;;-3.27;59.81;101650.19;4795302;29;19921;-68
2024/02/16 10:59:08;;;;;;;19.30;8.05;;;;;;;-3.20;60.25;101641.38;4779074;29;20043;-67
2024/02/16 11:01:44;;;;;;;18.75;8.25;;;;;;;-3.21;59.85;101644.72;4797715;29;20046;-67
2024/02/16 11:04:18;;;;;;;17.33;8.38;;;;;;;-3.11;59.67;101659.03;4794672;29;20047;-70
2024/02/16 11:06:55;;;;;;;18.92;9.15;;;;;;;-3.49;58.34;101655.31;4778683;29;20043;-66
2024/02/16 11:09:28;;;;;;;17.90;7.75;;;;;;;-3.70;59.38;101664.69;4797136;29;20050;-66
2024/02/16 11:11:58;;;;;;;19.52;8.02;;;;;;;-3.84;59.83;101643.22;4793130;29;20039;-67
2024/02/16 11:14:34;;;;;;;14.85;7.07;;;;;;;-3.90;59.20;101650.41;4780349;29;20427;-66
2024/02/16 11:17:01;;;;;;;19.15;8.38;;;;;;;-3.71;59.81;101663.81;4798417;29;20085;-66